Terminal Aerodrome Forecast
Issued by NWS

Home | Current Version | Previous Version | Graphics & Text | Print | Product List | Glossary Off
Versions: 1 2 3 4 5 6 7 8 9 10 11 12 13 14 15

000
FTUS41 KCLE 261100
TAFFDY
TAF
KFDY 261134Z 2612/2712 19008KT P6SM SKC
     FM261600 21012G20KT P6SM SKC
     FM270000 20010KT P6SM BKN250
     FM270500 21006KT P6SM BKN050=

USA.gov is the U.S. government's official web portal to all federal, state and local government web resources and services.